Time,TemperatureF,DewpointF,PressureIn,WindDirection,WindDirectionDegrees,WindSpeedMPH,WindSpeedGustMPH,Humidity,HourlyPrecipIn,Conditions,Clouds,dailyrainin,SoftwareType,DateUTC
2013-03-28 00:00:00,44.3,38.5,30.28,WNW,293,0.0,0.0,80,0.00,,---,0.00,VWS V14.00,2013-03-28 04:00:00,
2013-03-28 00:01:00,44.3,38.5,30.28,WNW,293,0.0,0.0,80,0.00,,---,0.00,VWS V14.00,2013-03-28 04:01:00,
2013-03-28 00:02:00,44.2,38.4,30.28,WNW,293,0.0,0.0,80,0.00,,---,0.00,VWS V14.00,2013-03-28 04:02:00,
2013-03-28 00:07:00,44.0,38.2,30.28,WNW,293,0.0,0.0,80,0.00,,---,0.00,VWS V14.00,2013-03-28 04:07:00,
2013-03-28 00:12:00,43.8,38.0,30.28,WNW,292,0.0,0.0,80,0.00,,---,0.00,VWS V14.00,2013-03-28 04:12:00,
2013-03-28 00:17:00,43.5,37.8,30.28,WNW,293,0.0,0.0,80,0.00,,---,0.00,VWS V14.00,2013-03-28 04:17:00,
2013-03-28 00:22:00,43.3,37.9,30.28,WNW,292,0.0,0.0,81,0.00,,---,0.00,VWS V14.00,2013-03-28 04:22:00,
2013-03-28 00:27:00,43.1,37.7,30.28,WNW,292,0.0,0.0,81,0.00,,---,0.00,VWS V14.00,2013-03-28 04:27:00,
2013-03-28 00:30:00,43.0,37.9,30.28,WNW,292,0.0,0.0,82,0.00,,---,0.00,VWS V14.00,2013-03-28 04:30:00,
2013-03-28 00:32:00,42.9,37.8,30.28,WNW,292,0.0,0.0,82,0.00,,---,0.00,VWS V14.00,2013-03-28 04:32:00,
2013-03-28 00:38:00,42.7,37.6,30.28,WNW,292,0.0,0.0,82,0.00,,---,0.00,VWS V14.00,2013-03-28 04:38:00,
2013-03-28 00:43:00,42.6,37.5,30.28,WNW,293,0.0,0.0,82,0.00,,---,0.00,VWS V14.00,2013-03-28 04:43:00,
2013-03-28 00:48:00,42.5,37.7,30.28,WNW,292,0.0,0.0,83,0.00,,---,0.00,VWS V14.00,2013-03-28 04:48:00,
2013-03-28 00:53:00,42.3,37.5,30.28,WNW,293,0.0,0.0,83,0.00,,---,0.00,VWS V14.00,2013-03-28 04:53:00,
2013-03-28 00:58:00,42.2,37.4,30.28,WNW,292,0.0,0.0,83,0.00,,---,0.00,VWS V14.00,2013-03-28 04:58:00,
2013-03-28 01:00:00,42.1,37.3,30.27,WNW,293,0.0,0.0,83,0.00,,---,0.00,VWS V14.00,2013-03-28 05:00:00,
2013-03-28 01:03:00,42.0,37.2,30.28,WNW,293,0.0,0.0,83,0.00,,---,0.00,VWS V14.00,2013-03-28 05:03:00,
2013-03-28 01:08:00,42.0,37.2,30.27,WNW,293,0.0,0.0,83,0.00,,---,0.00,VWS V14.00,2013-03-28 05:08:00,
2013-03-28 01:13:00,41.8,37.0,30.27,WNW,293,0.0,0.0,83,0.00,,---,0.00,VWS V14.00,2013-03-28 05:13:00,
2013-03-28 01:19:00,41.6,36.8,30.28,WNW,292,0.0,0.0,83,0.00,,---,0.00,VWS V14.00,2013-03-28 05:19:00,
2013-03-28 01:24:00,41.3,36.5,30.28,WNW,293,0.0,0.0,83,0.00,,---,0.00,VWS V14.00,2013-03-28 05:24:00,
2013-03-28 01:29:00,41.1,36.6,30.28,WNW,292,0.0,0.0,84,0.00,,---,0.00,VWS V14.00,2013-03-28 05:29:00,
2013-03-28 01:30:00,41.1,36.6,30.28,WNW,293,0.0,0.0,84,0.00,,---,0.00,VWS V14.00,2013-03-28 05:30:00,
2013-03-28 01:34:00,41.0,36.5,30.28,WNW,293,0.0,0.0,84,0.00,,---,0.00,VWS V14.00,2013-03-28 05:34:00,
2013-03-28 01:39:00,40.8,36.3,30.27,WNW,293,0.0,0.0,84,0.00,,---,0.00,VWS V14.00,2013-03-28 05:39:00,
2013-03-28 01:44:00,40.6,36.2,30.28,WNW,293,0.0,0.0,84,0.00,,---,0.00,VWS V14.00,2013-03-28 05:44:00,
2013-03-28 01:50:00,40.5,36.3,30.28,WNW,293,0.0,0.0,85,0.00,,---,0.00,VWS V14.00,2013-03-28 05:50:00,
2013-03-28 01:55:00,40.4,36.3,30.27,WNW,293,0.0,0.0,85,0.00,,---,0.00,VWS V14.00,2013-03-28 05:55:00,
2013-03-28 02:00:00,40.3,36.2,30.28,WNW,292,0.0,0.0,85,0.00,,---,0.00,VWS V14.00,2013-03-28 06:00:00,
2013-03-28 02:05:00,40.3,36.5,30.28,WNW,292,0.0,0.0,86,0.00,,---,0.00,VWS V14.00,2013-03-28 06:05:00,
2013-03-28 02:10:00,40.3,36.5,30.27,WNW,293,0.0,0.0,86,0.00,,---,0.00,VWS V14.00,2013-03-28 06:10:00,
2013-03-28 02:16:00,40.3,36.5,30.27,WNW,293,0.0,0.0,86,0.00,,---,0.00,VWS V14.00,2013-03-28 06:16:00,
2013-03-28 02:21:00,40.2,36.3,30.27,WNW,292,0.0,0.0,86,0.00,,---,0.00,VWS V14.00,2013-03-28 06:21:00,
2013-03-28 02:27:00,40.1,36.3,30.27,WNW,293,0.0,0.0,86,0.00,,---,0.00,VWS V14.00,2013-03-28 06:27:00,
2013-03-28 02:30:00,40.0,36.2,30.27,WNW,293,0.0,0.0,86,0.00,,---,0.00,VWS V14.00,2013-03-28 06:30:00,
2013-03-28 02:32:00,40.0,36.2,30.27,WNW,293,0.0,0.0,86,0.00,,---,0.00,VWS V14.00,2013-03-28 06:32:00,
2013-03-28 02:37:00,39.8,36.0,30.27,WNW,293,0.0,0.0,86,0.00,,---,0.00,VWS V14.00,2013-03-28 06:37:00,
2013-03-28 02:42:00,39.7,36.2,30.27,WNW,293,0.0,0.0,87,0.00,,---,0.00,VWS V14.00,2013-03-28 06:42:00,
2013-03-28 02:48:00,39.7,36.2,30.27,WNW,293,0.0,0.0,87,0.00,,---,0.00,VWS V14.00,2013-03-28 06:48:00,
2013-03-28 02:53:00,39.5,36.0,30.26,WNW,293,0.0,0.0,87,0.00,,---,0.00,VWS V14.00,2013-03-28 06:53:00,
2013-03-28 02:58:00,39.5,36.0,30.26,WNW,293,0.0,0.0,87,0.00,,---,0.00,VWS V14.00,2013-03-28 06:58:00,
2013-03-28 03:00:00,39.4,35.9,30.26,WNW,292,0.0,0.0,87,0.00,,---,0.00,VWS V14.00,2013-03-28 07:00:00,
2013-03-28 03:03:00,39.3,36.0,30.26,WNW,292,0.0,0.0,88,0.00,,---,0.00,VWS V14.00,2013-03-28 07:03:00,
2013-03-28 03:08:00,39.3,36.0,30.26,WNW,293,0.0,0.0,88,0.00,,---,0.00,VWS V14.00,2013-03-28 07:08:00,
2013-03-28 03:13:00,39.2,36.0,30.26,WNW,292,0.0,0.0,88,0.00,,---,0.00,VWS V14.00,2013-03-28 07:13:00,
2013-03-28 03:19:00,39.0,35.8,30.26,WNW,293,0.0,0.0,88,0.00,,---,0.00,VWS V14.00,2013-03-28 07:19:00,
2013-03-28 03:24:00,38.8,35.6,30.26,WNW,293,0.0,0.0,88,0.00,,---,0.00,VWS V14.00,2013-03-28 07:24:00,
2013-03-28 03:29:00,38.7,35.5,30.26,WNW,293,0.0,0.0,88,0.00,,---,0.00,VWS V14.00,2013-03-28 07:29:00,
2013-03-28 03:30:00,38.7,35.5,30.26,WNW,293,0.0,0.0,88,0.00,,---,0.00,VWS V14.00,2013-03-28 07:30:00,
2013-03-28 03:35:00,38.6,35.6,30.26,WNW,292,0.0,0.0,89,0.00,,---,0.00,VWS V14.00,2013-03-28 07:35:00,
2013-03-28 03:40:00,38.7,35.7,30.26,WNW,293,0.0,0.0,89,0.00,,---,0.00,VWS V14.00,2013-03-28 07:40:00,
2013-03-28 03:45:00,38.6,35.6,30.26,WNW,292,0.0,0.0,89,0.00,,---,0.00,VWS V14.00,2013-03-28 07:45:00,
2013-03-28 03:50:00,38.5,35.5,30.26,WNW,292,0.0,0.0,89,0.00,,---,0.00,VWS V14.00,2013-03-28 07:50:00,
2013-03-28 03:55:00,38.6,35.6,30.25,WNW,293,0.0,0.0,89,0.00,,---,0.00,VWS V14.00,2013-03-28 07:55:00,
2013-03-28 04:00:00,38.6,35.6,30.25,WNW,293,0.0,0.0,89,0.00,,---,0.00,VWS V14.00,2013-03-28 08:00:00,
2013-03-28 04:05:00,38.6,35.6,30.25,WNW,293,0.0,0.0,89,0.00,,---,0.00,VWS V14.00,2013-03-28 08:05:00,
2013-03-28 04:10:00,38.5,35.5,30.25,WNW,293,0.0,0.0,89,0.00,,---,0.00,VWS V14.00,2013-03-28 08:10:00,
2013-03-28 04:15:00,38.4,35.7,30.25,WNW,292,0.0,0.0,90,0.00,,---,0.00,VWS V14.00,2013-03-28 08:15:00,
2013-03-28 04:21:00,38.3,35.6,30.25,WNW,293,0.0,0.0,90,0.00,,---,0.00,VWS V14.00,2013-03-28 08:21:00,
2013-03-28 04:26:00,38.1,35.4,30.25,WNW,292,0.0,0.0,90,0.00,,---,0.00,VWS V14.00,2013-03-28 08:26:00,
2013-03-28 04:30:00,38.0,35.3,30.25,WNW,292,0.0,0.0,90,0.00,,---,0.00,VWS V14.00,2013-03-28 08:30:00,
2013-03-28 04:31:00,38.0,35.3,30.25,WNW,292,0.0,0.0,90,0.00,,---,0.00,VWS V14.00,2013-03-28 08:31:00,
2013-03-28 04:37:00,37.8,35.1,30.25,WNW,292,0.0,0.0,90,0.00,,---,0.00,VWS V14.00,2013-03-28 08:37:00,
2013-03-28 04:42:00,37.6,34.9,30.25,WNW,293,0.0,0.0,90,0.00,,---,0.00,VWS V14.00,2013-03-28 08:42:00,
2013-03-28 04:47:00,37.6,34.9,30.25,WNW,293,0.0,0.0,90,0.00,,---,0.00,VWS V14.00,2013-03-28 08:47:00,
2013-03-28 04:52:00,37.7,35.0,30.25,WNW,293,0.0,0.0,90,0.00,,---,0.00,VWS V14.00,2013-03-28 08:52:00,
2013-03-28 04:57:00,37.7,35.0,30.25,WNW,293,0.0,0.0,90,0.00,,---,0.00,VWS V14.00,2013-03-28 08:57:00,
2013-03-28 05:00:00,37.6,34.9,30.25,WNW,293,0.0,0.0,90,0.00,,---,0.00,VWS V14.00,2013-03-28 09:00:00,
2013-03-28 05:02:00,37.6,34.9,30.25,WNW,293,0.0,0.0,90,0.01,,---,0.01,VWS V14.00,2013-03-28 09:02:00,
2013-03-28 05:08:00,37.5,34.8,30.25,WNW,292,0.0,0.0,90,0.01,,---,0.01,VWS V14.00,2013-03-28 09:08:00,
2013-03-28 05:13:00,37.5,35.1,30.25,WNW,293,0.0,0.0,91,0.01,,---,0.01,VWS V14.00,2013-03-28 09:13:00,
2013-03-28 05:18:00,37.5,35.1,30.25,WNW,292,0.0,0.0,91,0.01,,---,0.01,VWS V14.00,2013-03-28 09:18:00,
2013-03-28 05:23:00,37.4,35.0,30.25,WNW,293,0.0,0.0,91,0.01,,---,0.01,VWS V14.00,2013-03-28 09:23:00,
2013-03-28 05:28:00,37.5,35.1,30.25,WNW,293,0.0,0.0,91,0.01,,---,0.01,VWS V14.00,2013-03-28 09:28:00,
2013-03-28 05:30:00,37.6,35.2,30.25,WNW,292,0.0,0.0,91,0.01,,---,0.01,VWS V14.00,2013-03-28 09:30:00,
2013-03-28 05:33:00,37.6,35.2,30.26,WNW,293,0.0,0.0,91,0.01,,---,0.01,VWS V14.00,2013-03-28 09:33:00,
2013-03-28 05:39:00,37.6,35.2,30.26,WNW,293,0.0,0.0,91,0.01,,---,0.01,VWS V14.00,2013-03-28 09:39:00,
2013-03-28 05:44:00,37.7,35.3,30.26,WNW,293,0.0,0.0,91,0.01,,---,0.01,VWS V14.00,2013-03-28 09:44:00,
2013-03-28 05:49:00,37.6,35.2,30.26,WNW,293,0.0,0.0,91,0.01,,---,0.01,VWS V14.00,2013-03-28 09:49:00,
2013-03-28 05:54:00,37.7,35.3,30.26,WNW,293,0.0,0.0,91,0.01,,---,0.01,VWS V14.00,2013-03-28 09:54:00,
2013-03-28 05:59:00,37.8,35.4,30.26,WNW,293,0.0,0.0,91,0.01,,---,0.01,VWS V14.00,2013-03-28 09:59:00,
2013-03-28 06:00:00,37.9,35.5,30.27,WNW,292,0.0,0.0,91,0.01,,---,0.01,VWS V14.00,2013-03-28 10:00:00,
2013-03-28 06:04:00,37.9,35.5,30.27,WNW,293,0.0,0.0,91,0.01,,---,0.01,VWS V14.00,2013-03-28 10:04:00,
2013-03-28 06:10:00,37.7,35.3,30.27,WNW,293,0.0,0.0,91,0.01,,---,0.01,VWS V14.00,2013-03-28 10:10:00,
2013-03-28 06:15:00,37.7,35.3,30.27,WNW,292,0.0,0.0,91,0.01,,---,0.01,VWS V14.00,2013-03-28 10:15:00,
2013-03-28 06:20:00,37.6,35.2,30.27,WNW,293,0.0,0.0,91,0.01,,---,0.01,VWS V14.00,2013-03-28 10:20:00,
2013-03-28 06:25:00,37.5,35.1,30.27,WNW,293,0.0,0.0,91,0.01,,---,0.01,VWS V14.00,2013-03-28 10:25:00,
2013-03-28 06:30:00,37.4,35.0,30.27,WNW,292,0.0,0.0,91,0.01,,---,0.01,VWS V14.00,2013-03-28 10:30:00,
2013-03-28 06:35:00,37.2,34.8,30.27,WNW,293,0.0,0.0,91,0.00,,---,0.01,VWS V14.00,2013-03-28 10:35:00,
2013-03-28 06:40:00,37.1,34.7,30.27,WNW,293,0.0,0.0,91,0.00,,---,0.01,VWS V14.00,2013-03-28 10:40:00,
2013-03-28 06:45:00,36.9,34.5,30.27,WNW,293,0.0,0.0,91,0.00,,---,0.01,VWS V14.00,2013-03-28 10:45:00,
2013-03-28 06:51:00,36.6,34.2,30.27,WNW,292,0.0,0.0,91,0.00,,---,0.01,VWS V14.00,2013-03-28 10:51:00,
2013-03-28 06:56:00,36.4,34.0,30.27,WNW,293,0.0,0.0,91,0.00,,---,0.01,VWS V14.00,2013-03-28 10:56:00,
2013-03-28 07:00:00,36.2,33.8,30.27,WNW,292,0.0,0.0,91,0.00,,---,0.01,VWS V14.00,2013-03-28 11:00:00,
2013-03-28 07:01:00,36.2,33.8,30.27,WNW,293,0.0,0.0,91,0.00,,---,0.01,VWS V14.00,2013-03-28 11:01:00,
2013-03-28 07:06:00,36.0,33.6,30.27,WNW,293,0.0,0.0,91,0.00,,---,0.01,VWS V14.00,2013-03-28 11:06:00,
2013-03-28 07:11:00,35.8,33.4,30.26,WNW,293,0.0,0.0,91,0.00,,---,0.01,VWS V14.00,2013-03-28 11:11:00,
2013-03-28 07:17:00,35.7,33.3,30.27,WNW,292,0.0,0.0,91,0.00,,---,0.01,VWS V14.00,2013-03-28 11:17:00,
2013-03-28 07:22:00,35.6,33.2,30.27,WNW,293,0.0,0.0,91,0.00,,---,0.01,VWS V14.00,2013-03-28 11:22:00,
2013-03-28 07:27:00,35.7,33.3,30.27,WNW,293,0.0,0.0,91,0.00,,---,0.01,VWS V14.00,2013-03-28 11:27:00,
2013-03-28 07:30:00,35.8,33.4,30.27,WNW,293,0.0,0.0,91,0.00,,---,0.01,VWS V14.00,2013-03-28 11:30:00,
2013-03-28 07:32:00,35.7,33.3,30.27,WNW,292,0.0,0.0,91,0.00,,---,0.01,VWS V14.00,2013-03-28 11:32:00,
2013-03-28 07:37:00,35.8,33.4,30.27,WNW,293,0.0,0.0,91,0.00,,---,0.01,VWS V14.00,2013-03-28 11:37:00,
2013-03-28 07:43:00,36.0,33.6,30.27,WNW,293,0.0,0.0,91,0.00,,---,0.01,VWS V14.00,2013-03-28 11:43:00,
2013-03-28 07:48:00,36.0,33.6,30.27,WNW,292,0.0,0.0,91,0.00,,---,0.01,VWS V14.00,2013-03-28 11:48:00,
2013-03-28 07:53:00,36.0,33.6,30.27,WNW,293,0.0,0.0,91,0.00,,---,0.01,VWS V14.00,2013-03-28 11:53:00,
2013-03-28 07:58:00,36.3,34.2,30.27,WNW,293,0.0,0.0,92,0.00,,---,0.01,VWS V14.00,2013-03-28 11:58:00,
2013-03-28 08:00:00,36.5,34.4,30.27,WNW,292,0.0,0.0,92,0.00,,---,0.01,VWS V14.00,2013-03-28 12:00:00,
2013-03-28 08:03:00,36.7,34.6,30.27,WNW,292,0.0,0.0,92,0.00,,---,0.01,VWS V14.00,2013-03-28 12:03:00,
2013-03-28 08:08:00,37.1,35.0,30.27,WNW,293,0.0,0.0,92,0.00,,---,0.01,VWS V14.00,2013-03-28 12:08:00,
2013-03-28 08:14:00,37.5,35.4,30.28,WNW,292,0.0,0.0,92,0.00,,---,0.01,VWS V14.00,2013-03-28 12:14:00,
2013-03-28 08:19:00,38.2,36.4,30.28,WNW,293,0.0,0.0,93,0.00,,---,0.01,VWS V14.00,2013-03-28 12:19:00,
2013-03-28 08:24:00,38.6,36.8,30.28,WNW,292,0.0,0.0,93,0.00,,---,0.01,VWS V14.00,2013-03-28 12:24:00,
2013-03-28 08:29:00,39.0,36.9,30.28,WNW,292,0.0,0.0,92,0.00,,---,0.01,VWS V14.00,2013-03-28 12:29:00,
2013-03-28 08:30:00,39.2,37.1,30.28,WNW,293,0.0,0.0,92,0.00,,---,0.01,VWS V14.00,2013-03-28 12:30:00,
2013-03-28 08:34:00,39.5,37.7,30.28,WNW,293,0.0,0.0,93,0.00,,---,0.01,VWS V14.00,2013-03-28 12:34:00,
2013-03-28 08:40:00,40.0,38.1,30.28,WNW,292,0.0,0.0,93,0.00,,---,0.01,VWS V14.00,2013-03-28 12:40:00,
2013-03-28 08:45:00,40.5,38.6,30.28,WNW,293,0.0,0.0,93,0.00,,---,0.01,VWS V14.00,2013-03-28 12:45:00,
2013-03-28 08:50:00,41.1,39.0,30.29,WNW,293,0.0,0.0,92,0.00,,---,0.01,VWS V14.00,2013-03-28 12:50:00,
2013-03-28 08:55:00,41.8,39.7,30.29,WNW,293,0.0,0.0,92,0.00,,---,0.01,VWS V14.00,2013-03-28 12:55:00,
2013-03-28 09:00:00,42.7,40.5,30.29,WNW,293,0.0,0.0,92,0.00,,---,0.01,VWS V14.00,2013-03-28 13:00:00,
2013-03-28 09:05:00,43.9,41.2,30.30,WNW,295,0.0,0.0,90,0.00,,---,0.01,VWS V14.00,2013-03-28 13:05:00,
2013-03-28 09:10:00,45.3,40.8,30.29,WNW,297,0.0,0.0,84,0.00,,---,0.01,VWS V14.00,2013-03-28 13:10:00,
2013-03-28 09:15:00,46.5,39.7,30.30,WNW,302,0.0,4.0,77,0.00,,---,0.01,VWS V14.00,2013-03-28 13:15:00,
2013-03-28 09:21:00,48.2,38.2,30.30,NW,310,0.0,4.0,68,0.00,,---,0.01,VWS V14.00,2013-03-28 13:21:00,
2013-03-28 09:26:00,49.7,37.2,30.30,North,360,0.0,4.0,62,0.00,,---,0.01,VWS V14.00,2013-03-28 13:26:00,
2013-03-28 09:30:00,50.9,36.7,30.30,North,355,0.0,4.0,58,0.00,,---,0.01,VWS V14.00,2013-03-28 13:30:00,
2013-03-28 09:31:00,50.9,36.7,30.30,North,355,0.0,4.0,58,0.00,,---,0.01,VWS V14.00,2013-03-28 13:31:00,
2013-03-28 09:37:00,51.7,35.6,30.31,North,355,0.0,0.0,54,0.00,,---,0.01,VWS V14.00,2013-03-28 13:37:00,
2013-03-28 09:42:00,52.2,35.6,30.31,North,355,0.0,1.0,53,0.00,,---,0.01,VWS V14.00,2013-03-28 13:42:00,
2013-03-28 09:47:00,52.7,35.1,30.30,NW,309,0.0,1.0,51,0.00,,---,0.01,VWS V14.00,2013-03-28 13:47:00,
2013-03-28 09:52:00,53.1,35.0,30.31,WNW,302,0.0,4.0,50,0.00,,---,0.01,VWS V14.00,2013-03-28 13:52:00,
2013-03-28 09:57:00,53.5,34.3,30.31,NW,308,0.0,5.0,48,0.00,,---,0.01,VWS V14.00,2013-03-28 13:57:00,
2013-03-28 10:00:00,53.9,34.2,30.31,West,281,0.0,7.0,47,0.00,,---,0.01,VWS V14.00,2013-03-28 14:00:00,
2013-03-28 10:03:00,54.0,33.7,30.31,NW,317,0.0,2.0,46,0.00,,---,0.01,VWS V14.00,2013-03-28 14:03:00,
2013-03-28 10:08:00,54.4,33.5,30.31,WNW,302,3.0,5.0,45,0.00,,---,0.01,VWS V14.00,2013-03-28 14:08:00,
2013-03-28 10:13:00,54.9,34.5,30.31,NW,319,0.0,5.0,46,0.00,,---,0.01,VWS V14.00,2013-03-28 14:13:00,
2013-03-28 10:18:00,55.3,34.3,30.31,NW,318,0.0,5.0,45,0.00,,---,0.01,VWS V14.00,2013-03-28 14:18:00,
2013-03-28 10:23:00,55.9,34.3,30.31,NW,317,0.0,5.0,44,0.00,,---,0.01,VWS V14.00,2013-03-28 14:23:00,
2013-03-28 10:29:00,56.4,34.2,30.31,NW,325,0.0,5.0,43,0.00,,---,0.01,VWS V14.00,2013-03-28 14:29:00,
2013-03-28 10:30:00,56.6,35.0,30.31,NW,325,0.0,5.0,44,0.00,,---,0.01,VWS V14.00,2013-03-28 14:30:00,
2013-03-28 10:34:00,56.7,33.9,30.31,North,355,0.0,2.0,42,0.00,,---,0.01,VWS V14.00,2013-03-28 14:34:00,
2013-03-28 10:39:00,57.2,33.7,30.31,North,355,0.0,2.0,41,0.00,,---,0.01,VWS V14.00,2013-03-28 14:39:00,
2013-03-28 10:44:00,57.6,34.1,30.32,North,355,0.0,2.0,41,0.00,,---,0.01,VWS V14.00,2013-03-28 14:44:00,
2013-03-28 10:49:00,58.0,33.2,30.32,NNW,331,0.0,2.0,39,0.00,,---,0.01,VWS V14.00,2013-03-28 14:49:00,
2013-03-28 10:54:00,58.1,33.3,30.32,North,5,0.0,2.0,39,0.00,,---,0.01,VWS V14.00,2013-03-28 14:54:00,
2013-03-28 10:59:00,58.5,33.0,30.32,NNW,335,0.0,2.0,38,0.00,,---,0.01,VWS V14.00,2013-03-28 14:59:00,
2013-03-28 11:00:00,58.6,33.1,30.32,NNW,338,0.0,3.0,38,0.00,,---,0.01,VWS V14.00,2013-03-28 15:00:00,
2013-03-28 11:05:00,58.7,33.2,30.32,NW,314,0.0,3.0,38,0.00,,---,0.01,VWS V14.00,2013-03-28 15:05:00,
2013-03-28 11:10:00,59.0,33.5,30.32,WNW,303,0.0,5.0,38,0.00,,---,0.01,VWS V14.00,2013-03-28 15:10:00,
2013-03-28 11:15:00,59.3,33.7,30.31,West,276,0.0,5.0,38,0.00,,---,0.01,VWS V14.00,2013-03-28 15:15:00,
2013-03-28 11:20:00,59.7,33.4,30.31,NNE,29,0.0,6.0,37,0.00,,---,0.01,VWS V14.00,2013-03-28 15:20:00,
2013-03-28 11:25:00,59.9,34.2,30.31,NNE,26,0.0,6.0,38,0.00,,---,0.01,VWS V14.00,2013-03-28 15:25:00,
2013-03-28 11:30:00,60.1,33.1,30.31,NE,36,0.0,6.0,36,0.00,,---,0.01,VWS V14.00,2013-03-28 15:30:00,
2013-03-28 11:31:00,60.1,33.1,30.31,NNE,23,0.0,6.0,36,0.00,,---,0.01,VWS V14.00,2013-03-28 15:31:00,
2013-03-28 11:36:00,60.1,34.4,30.31,West,276,0.0,4.0,38,0.00,,---,0.01,VWS V14.00,2013-03-28 15:36:00,
2013-03-28 11:41:00,60.6,34.2,30.31,NNW,344,1.0,4.0,37,0.00,,---,0.01,VWS V14.00,2013-03-28 15:41:00,
2013-03-28 11:47:00,61.1,32.5,30.31,NW,309,0.0,5.0,34,0.00,,---,0.01,VWS V14.00,2013-03-28 15:47:00,
2013-03-28 11:52:00,61.6,33.0,30.31,SW,225,0.0,5.0,34,0.00,,---,0.01,VWS V14.00,2013-03-28 15:52:00,
2013-03-28 11:57:00,62.3,34.3,30.31,NNE,26,0.0,5.0,35,0.00,,---,0.01,VWS V14.00,2013-03-28 15:57:00,
2013-03-28 12:00:00,64.9,33.6,30.30,NW,318,0.0,5.0,31,0.00,,---,0.01,VWS V14.00,2013-03-28 16:00:00,
2013-03-28 12:02:00,62.8,34.8,30.31,NW,312,1.0,1.0,35,0.00,,---,0.01,VWS V14.00,2013-03-28 16:02:00,
2013-03-28 12:07:00,63.6,34.7,30.30,WNW,302,0.0,3.0,34,0.00,,---,0.01,VWS V14.00,2013-03-28 16:07:00,
2013-03-28 12:12:00,64.1,33.7,30.30,SSW,194,0.0,4.0,32,0.00,,---,0.01,VWS V14.00,2013-03-28 16:12:00,
2013-03-28 12:17:00,64.5,34.0,30.30,NNW,338,0.0,4.0,32,0.00,,---,0.01,VWS V14.00,2013-03-28 16:17:00,
2013-03-28 12:23:00,64.8,34.3,30.30,WSW,252,0.0,5.0,32,0.00,,---,0.01,VWS V14.00,2013-03-28 16:23:00,
2013-03-28 12:28:00,64.9,33.6,30.30,SSE,148,0.0,5.0,31,0.00,,---,0.01,VWS V14.00,2013-03-28 16:28:00,
2013-03-28 12:30:00,64.9,33.6,30.30,NW,318,0.0,5.0,31,0.00,,---,0.01,VWS V14.00,2013-03-28 16:30:00,
2013-03-28 12:33:00,65.1,33.7,30.30,NNW,336,0.0,1.0,31,0.00,,---,0.01,VWS V14.00,2013-03-28 16:33:00,
2013-03-28 12:38:00,65.1,33.7,30.29,North,355,0.0,4.0,31,0.00,,---,0.01,VWS V14.00,2013-03-28 16:38:00,
2013-03-28 12:43:00,65.7,33.5,30.29,NW,311,0.0,7.0,30,0.00,,---,0.01,VWS V14.00,2013-03-28 16:43:00,
2013-03-28 12:48:00,65.6,33.4,30.29,WNW,302,0.0,7.0,30,0.00,,---,0.01,VWS V14.00,2013-03-28 16:48:00,
2013-03-28 12:54:00,65.8,33.5,30.29,WSW,253,0.0,7.0,30,0.00,,---,0.01,VWS V14.00,2013-03-28 16:54:00,
2013-03-28 12:59:00,66.0,33.7,30.28,NW,317,0.0,7.0,30,0.00,,---,0.01,VWS V14.00,2013-03-28 16:59:00,
2013-03-28 13:00:00,66.4,34.9,30.28,NW,318,0.0,7.0,31,0.00,,---,0.01,VWS V14.00,2013-03-28 17:00:00,
2013-03-28 13:04:00,66.9,32.8,30.28,NE,36,0.0,2.0,28,0.00,,---,0.01,VWS V14.00,2013-03-28 17:04:00,
2013-03-28 13:09:00,67.1,34.7,30.28,NNE,25,0.0,2.0,30,0.00,,---,0.01,VWS V14.00,2013-03-28 17:09:00,
2013-03-28 13:14:00,67.6,34.2,30.28,North,360,0.0,2.0,29,0.00,,---,0.01,VWS V14.00,2013-03-28 17:14:00,
2013-03-28 13:20:00,67.4,32.3,30.28,WNW,294,0.0,3.0,27,0.00,,---,0.01,VWS V14.00,2013-03-28 17:20:00,
2013-03-28 13:25:00,67.3,33.1,30.28,West,263,0.0,4.0,28,0.00,,---,0.01,VWS V14.00,2013-03-28 17:25:00,
2013-03-28 13:30:00,67.7,33.5,30.27,SSW,200,3.0,4.0,28,0.00,,---,0.01,VWS V14.00,2013-03-28 17:30:00,
2013-03-28 13:35:00,67.6,32.5,30.27,WSW,244,0.0,3.0,27,0.00,,---,0.01,VWS V14.00,2013-03-28 17:35:00,
2013-03-28 13:40:00,67.6,33.4,30.26,West,259,0.0,3.0,28,0.00,,---,0.01,VWS V14.00,2013-03-28 17:40:00,
2013-03-28 13:45:00,67.7,32.5,30.26,NNW,337,0.0,3.0,27,0.00,,---,0.01,VWS V14.00,2013-03-28 17:45:00,
2013-03-28 13:50:00,68.0,32.8,30.26,NNW,329,0.0,4.0,27,0.00,,---,0.01,VWS V14.00,2013-03-28 17:50:00,
2013-03-28 13:56:00,68.7,32.5,30.26,NNW,330,0.0,4.0,26,0.00,,---,0.01,VWS V14.00,2013-03-28 17:56:00,
2013-03-28 14:00:00,69.0,31.8,30.26,NNW,333,0.0,4.0,25,0.00,,---,0.01,VWS V14.00,2013-03-28 18:00:00,
2013-03-28 14:01:00,69.0,31.8,30.26,NNW,332,0.0,4.0,25,0.00,,---,0.01,VWS V14.00,2013-03-28 18:01:00,
2013-03-28 14:06:00,68.9,32.6,30.25,NW,325,0.0,2.0,26,0.00,,---,0.01,VWS V14.00,2013-03-28 18:06:00,
2013-03-28 14:12:00,69.2,31.9,30.25,NW,310,0.0,5.0,25,0.00,,---,0.01,VWS V14.00,2013-03-28 18:12:00,
2013-03-28 14:17:00,69.5,34.1,30.25,NNE,26,0.0,5.0,27,0.00,,---,0.01,VWS V14.00,2013-03-28 18:17:00,
2013-03-28 14:22:00,69.9,32.5,30.25,NNW,340,0.0,5.0,25,0.00,,---,0.01,VWS V14.00,2013-03-28 18:22:00,
2013-03-28 14:27:00,69.5,33.1,30.24,NNW,340,0.0,5.0,26,0.00,,---,0.01,VWS V14.00,2013-03-28 18:27:00,
2013-03-28 14:30:00,69.7,34.3,30.24,NE,49,3.0,5.0,27,0.00,,---,0.01,VWS V14.00,2013-03-28 18:30:00,
2013-03-28 14:32:00,69.9,35.3,30.24,NE,49,1.0,3.0,28,0.00,,---,0.01,VWS V14.00,2013-03-28 18:32:00,
2013-03-28 14:37:00,70.3,34.8,30.24,NNW,327,0.0,6.0,27,0.00,,---,0.01,VWS V14.00,2013-03-28 18:37:00,
2013-03-28 14:43:00,70.5,34.0,30.23,NW,313,3.0,6.0,26,0.00,,---,0.01,VWS V14.00,2013-03-28 18:43:00,
2013-03-28 14:48:00,70.7,33.2,30.23,NW,317,0.0,6.0,25,0.00,,---,0.01,VWS V14.00,2013-03-28 18:48:00,
2013-03-28 14:53:00,70.7,34.2,30.23,NW,317,0.0,6.0,26,0.00,,---,0.01,VWS V14.00,2013-03-28 18:53:00,
2013-03-28 14:58:00,71.5,34.8,30.23,WSW,254,0.0,6.0,26,0.00,,---,0.01,VWS V14.00,2013-03-28 18:58:00,
2013-03-28 15:00:00,71.5,33.9,30.23,SW,216,3.0,7.0,25,0.00,,---,0.01,VWS V14.00,2013-03-28 19:00:00,
2013-03-28 15:03:00,71.0,33.4,30.23,SW,221,0.0,5.0,25,0.00,,---,0.01,VWS V14.00,2013-03-28 19:03:00,
2013-03-28 15:08:00,70.9,34.3,30.22,SSW,200,0.0,5.0,26,0.00,,---,0.01,VWS V14.00,2013-03-28 19:08:00,
2013-03-28 15:13:00,71.4,34.8,30.22,North,10,0.0,5.0,26,0.00,,---,0.01,VWS V14.00,2013-03-28 19:13:00,
2013-03-28 15:18:00,71.5,35.8,30.22,NNE,24,2.0,5.0,27,0.00,,---,0.01,VWS V14.00,2013-03-28 19:18:00,
2013-03-28 15:24:00,71.8,34.1,30.21,WSW,246,0.0,5.0,25,0.00,,---,0.01,VWS V14.00,2013-03-28 19:24:00,
2013-03-28 15:29:00,72.6,34.8,30.21,SW,229,1.0,5.0,25,0.00,,---,0.01,VWS V14.00,2013-03-28 19:29:00,
2013-03-28 15:30:00,72.6,33.8,30.21,WSW,242,0.0,5.0,24,0.00,,---,0.01,VWS V14.00,2013-03-28 19:30:00,
2013-03-28 15:34:00,72.6,34.8,30.21,WSW,242,0.0,0.0,25,0.00,,---,0.01,VWS V14.00,2013-03-28 19:34:00,
2013-03-28 15:39:00,72.6,34.8,30.20,WSW,249,0.0,5.0,25,0.00,,---,0.01,VWS V14.00,2013-03-28 19:39:00,
2013-03-28 15:44:00,72.1,34.4,30.20,WSW,257,2.0,9.0,25,0.00,,---,0.01,VWS V14.00,2013-03-28 19:44:00,
2013-03-28 15:50:00,71.8,34.1,30.20,NNE,19,3.0,9.0,25,0.00,,---,0.01,VWS V14.00,2013-03-28 19:50:00,
2013-03-28 15:55:00,71.4,33.8,30.20,South,183,0.0,9.0,25,0.00,,---,0.01,VWS V14.00,2013-03-28 19:55:00,
2013-03-28 16:00:00,71.9,34.2,30.19,South,186,0.0,9.0,25,0.00,,---,0.01,VWS V14.00,2013-03-28 20:00:00,
2013-03-28 16:05:00,72.4,34.6,30.19,SW,221,0.0,4.0,25,0.00,,---,0.01,VWS V14.00,2013-03-28 20:05:00,
2013-03-28 16:10:00,72.5,34.7,30.19,SW,236,0.0,6.0,25,0.00,,---,0.01,VWS V14.00,2013-03-28 20:10:00,
2013-03-28 16:15:00,73.0,36.1,30.18,SW,233,3.0,6.0,26,0.00,,---,0.01,VWS V14.00,2013-03-28 20:15:00,
2013-03-28 16:21:00,72.8,33.9,30.18,NW,318,0.0,6.0,24,0.00,,---,0.01,VWS V14.00,2013-03-28 20:21:00,
2013-03-28 16:27:00,72.5,35.7,30.18,North,360,0.0,6.0,26,0.00,,---,0.01,VWS V14.00,2013-03-28 20:27:00,
2013-03-28 16:30:00,72.4,34.6,30.19,SW,236,0.0,6.0,25,0.00,,---,0.01,VWS V14.00,2013-03-28 20:30:00,
2013-03-28 16:32:00,72.4,34.6,30.18,WSW,241,2.0,3.0,25,0.00,,---,0.01,VWS V14.00,2013-03-28 20:32:00,
2013-03-28 16:37:00,72.3,34.5,30.18,NW,304,0.0,4.0,25,0.00,,---,0.01,VWS V14.00,2013-03-28 20:37:00,
2013-03-28 16:42:00,72.6,34.8,30.18,South,176,1.0,4.0,25,0.00,,---,0.01,VWS V14.00,2013-03-28 20:42:00,
2013-03-28 16:47:00,72.6,34.8,30.18,South,182,0.0,5.0,25,0.00,,---,0.01,VWS V14.00,2013-03-28 20:47:00,
2013-03-28 16:52:00,72.2,34.5,30.18,NW,318,0.0,9.0,25,0.00,,---,0.01,VWS V14.00,2013-03-28 20:52:00,
2013-03-28 16:57:00,72.1,34.4,30.18,SW,233,0.0,9.0,25,0.00,,---,0.01,VWS V14.00,2013-03-28 20:57:00,
2013-03-28 17:00:00,72.0,34.3,30.18,South,184,0.0,9.0,25,0.00,,---,0.01,VWS V14.00,2013-03-28 21:00:00,
2013-03-28 17:02:00,72.0,35.3,30.18,South,184,0.0,0.0,26,0.00,,---,0.01,VWS V14.00,2013-03-28 21:02:00,
2013-03-28 17:08:00,72.1,35.4,30.19,SSW,205,0.0,0.0,26,0.00,,---,0.01,VWS V14.00,2013-03-28 21:08:00,
2013-03-28 17:13:00,72.4,35.6,30.18,WNW,296,3.0,4.0,26,0.00,,---,0.01,VWS V14.00,2013-03-28 21:13:00,
2013-03-28 17:18:00,72.0,35.3,30.18,NW,321,0.0,8.0,26,0.00,,---,0.01,VWS V14.00,2013-03-28 21:18:00,
2013-03-28 17:23:00,72.5,35.7,30.18,WSW,254,0.0,8.0,26,0.00,,---,0.01,VWS V14.00,2013-03-28 21:23:00,
2013-03-28 17:28:00,72.6,33.8,30.19,NW,304,0.0,8.0,24,0.00,,---,0.01,VWS V14.00,2013-03-28 21:28:00,
2013-03-28 17:30:00,72.1,34.4,30.19,NW,304,0.0,8.0,25,0.00,,---,0.01,VWS V14.00,2013-03-28 21:30:00,
2013-03-28 17:33:00,71.9,34.2,30.19,SW,222,0.0,4.0,25,0.00,,---,0.01,VWS V14.00,2013-03-28 21:33:00,
2013-03-28 17:39:00,71.9,34.2,30.18,SW,222,0.0,4.0,25,0.00,,---,0.01,VWS V14.00,2013-03-28 21:39:00,
2013-03-28 17:44:00,71.7,34.0,30.19,SW,228,0.0,4.0,25,0.00,,---,0.01,VWS V14.00,2013-03-28 21:44:00,
2013-03-28 17:49:00,71.3,34.7,30.19,WNW,294,0.0,4.0,26,0.00,,---,0.01,VWS V14.00,2013-03-28 21:49:00,
2013-03-28 17:54:00,70.9,34.3,30.19,WNW,296,0.0,4.0,26,0.00,,---,0.01,VWS V14.00,2013-03-28 21:54:00,
2013-03-28 17:59:00,70.4,33.9,30.19,NW,307,0.0,4.0,26,0.00,,---,0.01,VWS V14.00,2013-03-28 21:59:00,
2013-03-28 18:00:00,70.3,33.8,30.19,NW,307,0.0,4.0,26,0.00,,---,0.01,VWS V14.00,2013-03-28 22:00:00,
2013-03-28 18:05:00,70.2,34.7,30.19,NW,310,0.0,1.0,27,0.00,,---,0.01,VWS V14.00,2013-03-28 22:05:00,
2013-03-28 18:10:00,70.0,34.5,30.19,NNE,18,0.0,1.0,27,0.00,,---,0.01,VWS V14.00,2013-03-28 22:10:00,
2013-03-28 18:15:00,69.8,33.4,30.19,NNE,18,0.0,1.0,26,0.00,,---,0.01,VWS V14.00,2013-03-28 22:15:00,
2013-03-28 18:21:00,69.6,34.2,30.20,NNE,19,0.0,1.0,27,0.00,,---,0.01,VWS V14.00,2013-03-28 22:21:00,
2013-03-28 18:26:00,69.5,34.1,30.20,NNE,18,0.0,1.0,27,0.00,,---,0.01,VWS V14.00,2013-03-28 22:26:00,
2013-03-28 18:30:00,69.4,34.0,30.20,NNE,18,0.0,1.0,27,0.00,,---,0.01,VWS V14.00,2013-03-28 22:30:00,
2013-03-28 18:31:00,69.4,34.0,30.20,NNE,19,0.0,1.0,27,0.00,,---,0.01,VWS V14.00,2013-03-28 22:31:00,
2013-03-28 18:36:00,69.2,34.7,30.20,NNE,19,0.0,3.0,28,0.00,,---,0.01,VWS V14.00,2013-03-28 22:36:00,
2013-03-28 18:41:00,69.1,34.7,30.20,NNE,19,0.0,3.0,28,0.00,,---,0.01,VWS V14.00,2013-03-28 22:41:00,
2013-03-28 18:47:00,68.9,34.5,30.20,NNE,19,0.0,3.0,28,0.00,,---,0.01,VWS V14.00,2013-03-28 22:47:00,
2013-03-28 18:52:00,68.7,36.0,30.20,NNE,19,0.0,3.0,30,0.00,,---,0.01,VWS V14.00,2013-03-28 22:52:00,
2013-03-28 18:57:00,68.1,40.9,30.21,NNE,32,0.0,3.0,37,0.00,,---,0.01,VWS V14.00,2013-03-28 22:57:00,
2013-03-28 19:00:00,67.4,41.6,30.21,NNE,32,0.0,3.0,39,0.00,,---,0.01,VWS V14.00,2013-03-28 23:00:00,
2013-03-28 19:02:00,67.2,42.1,30.21,NNE,32,0.0,1.0,40,0.00,,---,0.01,VWS V14.00,2013-03-28 23:02:00,
2013-03-28 19:07:00,66.4,42.0,30.21,NNE,32,0.0,1.0,41,0.00,,---,0.01,VWS V14.00,2013-03-28 23:07:00,
2013-03-28 19:12:00,65.8,42.1,30.22,North,360,0.0,1.0,42,0.00,,---,0.01,VWS V14.00,2013-03-28 23:12:00,
2013-03-28 19:17:00,65.3,42.2,30.22,North,360,0.0,2.0,43,0.00,,---,0.01,VWS V14.00,2013-03-28 23:17:00,
2013-03-28 19:23:00,64.7,42.3,30.22,North,360,0.0,2.0,44,0.00,,---,0.01,VWS V14.00,2013-03-28 23:23:00,
2013-03-28 19:28:00,64.2,41.8,30.22,North,360,0.0,2.0,44,0.00,,---,0.01,VWS V14.00,2013-03-28 23:28:00,
2013-03-28 19:30:00,63.9,42.7,30.22,North,360,0.0,2.0,46,0.00,,---,0.01,VWS V14.00,2013-03-28 23:30:00,
2013-03-28 19:33:00,63.7,42.0,30.22,North,360,0.0,0.0,45,0.00,,---,0.01,VWS V14.00,2013-03-28 23:33:00,
2013-03-28 19:38:00,63.3,42.2,30.23,North,360,0.0,0.0,46,0.00,,---,0.01,VWS V14.00,2013-03-28 23:38:00,
2013-03-28 19:43:00,62.9,42.4,30.23,North,360,0.0,0.0,47,0.00,,---,0.01,VWS V14.00,2013-03-28 23:43:00,
2013-03-28 19:48:00,62.6,42.7,30.23,North,360,0.0,0.0,48,0.00,,---,0.01,VWS V14.00,2013-03-28 23:48:00,
2013-03-28 19:54:00,62.2,42.3,30.23,North,5,0.0,1.0,48,0.00,,---,0.01,VWS V14.00,2013-03-28 23:54:00,
2013-03-28 19:59:00,61.8,42.5,30.23,North,5,0.0,1.0,49,0.00,,---,0.01,VWS V14.00,2013-03-28 23:59:00,
2013-03-28 20:00:00,61.7,42.4,30.24,North,360,0.0,1.0,49,0.00,,---,0.01,VWS V14.00,2013-03-29 00:00:00,
2013-03-28 20:04:00,61.5,42.7,30.24,North,360,0.0,0.0,50,0.00,,---,0.01,VWS V14.00,2013-03-29 00:04:00,
2013-03-28 20:09:00,61.1,42.8,30.24,North,360,0.0,0.0,51,0.00,,---,0.01,VWS V14.00,2013-03-29 00:09:00,
2013-03-28 20:14:00,60.7,43.0,30.24,North,5,0.0,0.0,52,0.00,,---,0.01,VWS V14.00,2013-03-29 00:14:00,
2013-03-28 20:19:00,60.3,42.6,30.24,North,5,0.0,0.0,52,0.00,,---,0.01,VWS V14.00,2013-03-29 00:19:00,
2013-03-28 20:24:00,59.8,42.7,30.24,North,5,0.0,0.0,53,0.00,,---,0.01,VWS V14.00,2013-03-29 00:24:00,
2013-03-28 20:30:00,59.6,42.5,30.24,North,5,0.0,0.0,53,0.00,,---,0.01,VWS V14.00,2013-03-29 00:30:00,
2013-03-28 20:35:00,59.4,42.8,30.25,North,5,0.0,1.0,54,0.00,,---,0.01,VWS V14.00,2013-03-29 00:35:00,
2013-03-28 20:40:00,59.1,42.5,30.25,North,360,0.0,1.0,54,0.00,,---,0.01,VWS V14.00,2013-03-29 00:40:00,
2013-03-28 20:45:00,59.0,42.4,30.25,North,5,0.0,1.0,54,0.00,,---,0.01,VWS V14.00,2013-03-29 00:45:00,
2013-03-28 20:50:00,58.8,42.7,30.25,North,5,0.0,1.0,55,0.00,,---,0.01,VWS V14.00,2013-03-29 00:50:00,
2013-03-28 20:55:00,58.4,42.8,30.25,North,5,0.0,1.0,56,0.00,,---,0.01,VWS V14.00,2013-03-29 00:55:00,
2013-03-28 21:00:00,58.2,43.1,30.25,North,5,0.0,1.0,57,0.00,,---,0.01,VWS V14.00,2013-03-29 01:00:00,
2013-03-28 21:05:00,57.8,42.7,30.26,North,5,0.0,0.0,57,0.00,,---,0.01,VWS V14.00,2013-03-29 01:05:00,
2013-03-28 21:10:00,57.5,42.8,30.26,North,5,0.0,0.0,58,0.00,,---,0.01,VWS V14.00,2013-03-29 01:10:00,
2013-03-28 21:15:00,57.2,43.0,30.26,North,360,0.0,0.0,59,0.00,,---,0.01,VWS V14.00,2013-03-29 01:15:00,
2013-03-28 21:21:00,57.0,42.8,30.26,North,360,0.0,0.0,59,0.00,,---,0.01,VWS V14.00,2013-03-29 01:21:00,
2013-03-28 21:26:00,56.8,43.1,30.26,North,5,0.0,0.0,60,0.00,,---,0.01,VWS V14.00,2013-03-29 01:26:00,
2013-03-28 21:30:00,56.5,42.8,30.26,North,360,0.0,0.0,60,0.00,,---,0.01,VWS V14.00,2013-03-29 01:30:00,
2013-03-28 21:31:00,56.5,42.8,30.26,North,360,0.0,0.0,60,0.00,,---,0.01,VWS V14.00,2013-03-29 01:31:00,
2013-03-28 21:37:00,56.4,43.1,30.26,North,5,0.0,1.0,61,0.00,,---,0.01,VWS V14.00,2013-03-29 01:37:00,
2013-03-28 21:42:00,56.2,43.0,30.26,North,5,0.0,1.0,61,0.00,,---,0.01,VWS V14.00,2013-03-29 01:42:00,
2013-03-28 21:47:00,56.1,43.3,30.27,North,5,0.0,1.0,62,0.00,,---,0.01,VWS V14.00,2013-03-29 01:47:00,
2013-03-28 21:52:00,55.8,43.0,30.27,North,5,0.0,1.0,62,0.00,,---,0.01,VWS V14.00,2013-03-29 01:52:00,
2013-03-28 21:58:00,55.5,43.1,30.27,North,5,0.0,1.0,63,0.00,,---,0.01,VWS V14.00,2013-03-29 01:58:00,
2013-03-28 22:00:00,55.3,42.9,30.27,North,5,0.0,1.0,63,0.00,,---,0.01,VWS V14.00,2013-03-29 02:00:00,
2013-03-28 22:03:00,55.3,43.3,30.27,North,5,0.0,0.0,64,0.00,,---,0.01,VWS V14.00,2013-03-29 02:03:00,
2013-03-28 22:08:00,55.0,43.5,30.27,North,5,0.0,0.0,65,0.00,,---,0.01,VWS V14.00,2013-03-29 02:08:00,
2013-03-28 22:13:00,54.8,43.3,30.27,North,5,0.0,0.0,65,0.00,,---,0.01,VWS V14.00,2013-03-29 02:13:00,
2013-03-28 22:18:00,54.6,43.1,30.27,North,5,0.0,0.0,65,0.00,,---,0.01,VWS V14.00,2013-03-29 02:18:00,
2013-03-28 22:23:00,54.4,43.3,30.28,North,5,0.0,0.0,66,0.00,,---,0.01,VWS V14.00,2013-03-29 02:23:00,
2013-03-28 22:28:00,54.1,43.4,30.28,North,5,0.0,0.0,67,0.00,,---,0.01,VWS V14.00,2013-03-29 02:28:00,
2013-03-28 22:30:00,53.9,43.2,30.28,North,360,0.0,0.0,67,0.00,,---,0.01,VWS V14.00,2013-03-29 02:30:00,
2013-03-28 22:34:00,53.8,43.1,30.28,North,5,0.0,0.0,67,0.00,,---,0.01,VWS V14.00,2013-03-29 02:34:00,
2013-03-28 22:39:00,53.4,43.1,30.28,North,360,0.0,0.0,68,0.00,,---,0.01,VWS V14.00,2013-03-29 02:39:00,
2013-03-28 22:44:00,53.2,43.3,30.28,North,5,0.0,0.0,69,0.00,,---,0.01,VWS V14.00,2013-03-29 02:44:00,
2013-03-28 22:49:00,52.9,43.0,30.28,North,5,0.0,0.0,69,0.00,,---,0.01,VWS V14.00,2013-03-29 02:49:00,
2013-03-28 22:54:00,52.6,43.1,30.28,North,5,0.0,0.0,70,0.00,,---,0.01,VWS V14.00,2013-03-29 02:54:00,
2013-03-28 22:59:00,52.3,42.8,30.28,North,360,0.0,0.0,70,0.00,,---,0.01,VWS V14.00,2013-03-29 02:59:00,
2013-03-28 23:00:00,52.2,43.1,30.28,North,5,0.0,0.0,71,0.00,,---,0.01,VWS V14.00,2013-03-29 03:00:00,
2013-03-28 23:05:00,52.0,42.9,30.29,North,5,0.0,0.0,71,0.00,,---,0.01,VWS V14.00,2013-03-29 03:05:00,
2013-03-28 23:10:00,51.7,43.0,30.29,North,5,0.0,0.0,72,0.00,,---,0.01,VWS V14.00,2013-03-29 03:10:00,
2013-03-28 23:15:00,51.5,43.1,30.29,North,5,0.0,0.0,73,0.00,,---,0.01,VWS V14.00,2013-03-29 03:15:00,
2013-03-28 23:20:00,51.4,43.4,30.29,North,360,0.0,0.0,74,0.00,,---,0.01,VWS V14.00,2013-03-29 03:20:00,
2013-03-28 23:25:00,51.2,43.6,30.29,North,5,0.0,0.0,75,0.00,,---,0.01,VWS V14.00,2013-03-29 03:25:00,
2013-03-28 23:30:00,51.0,43.4,30.29,North,5,0.0,0.0,75,0.00,,---,0.01,VWS V14.00,2013-03-29 03:30:00,
2013-03-28 23:36:00,50.9,43.6,30.30,North,5,0.0,0.0,76,0.00,,---,0.01,VWS V14.00,2013-03-29 03:36:00,
2013-03-28 23:41:00,50.9,43.3,30.29,North,5,0.0,0.0,75,0.00,,---,0.01,VWS V14.00,2013-03-29 03:41:00,
2013-03-28 23:46:00,50.9,43.3,30.29,North,5,0.0,0.0,75,0.00,,---,0.01,VWS V14.00,2013-03-29 03:46:00,
2013-03-28 23:51:00,50.6,43.0,30.29,North,5,0.0,0.0,75,0.00,,---,0.01,VWS V14.00,2013-03-29 03:51:00,
2013-03-28 23:57:00,50.4,43.1,30.29,North,360,0.0,0.0,76,0.00,,---,0.01,VWS V14.00,2013-03-29 03:57:00,